createdAt,value
2018-07-07T00:00:08.003Z,22.34
2018-07-07T00:01:07.376Z,22.33
2018-07-07T00:02:07.293Z,22.33
2018-07-07T00:03:07.216Z,22.33
2018-07-07T00:04:07.134Z,22.34
2018-07-07T00:05:07.219Z,22.32
2018-07-07T00:06:07.411Z,22.33
2018-07-07T00:07:07.167Z,22.34
2018-07-07T00:08:06.990Z,22.33
2018-07-07T00:09:07.140Z,22.33
2018-07-07T00:10:07.280Z,22.34
2018-07-07T00:11:07.467Z,22.33
2018-07-07T00:12:07.317Z,22.35
2018-07-07T00:13:07.110Z,22.33
2018-07-07T00:14:07.050Z,22.35
2018-07-07T00:15:07.364Z,22.33
2018-07-07T00:16:07.221Z,22.33
2018-07-07T00:17:07.153Z,22.33
2018-07-07T00:18:07.246Z,22.33
2018-07-07T00:19:07.014Z,22.33
2018-07-07T00:20:07.236Z,22.33
2018-07-07T00:21:07.097Z,22.29
2018-07-07T00:22:07.251Z,22.34
2018-07-07T00:23:07.128Z,22.33
2018-07-07T00:24:07.062Z,22.31
2018-07-07T00:25:07.003Z,22.34
2018-07-07T00:26:07.284Z,22.32
2018-07-07T00:27:07.331Z,22.29
2018-07-07T00:28:07.065Z,22.32
2018-07-07T00:29:07.229Z,22.33
2018-07-07T00:30:07.213Z,22.32
2018-07-07T00:31:07.222Z,22.32
2018-07-07T00:32:07.095Z,22.31
2018-07-07T00:33:07.309Z,22.28
2018-07-07T00:34:07.013Z,22.31
2018-07-07T00:35:07.019Z,22.32
2018-07-07T00:36:07.172Z,22.31
2018-07-07T00:37:39.136Z,22.34
2018-07-07T00:38:07.145Z,22.31
2018-07-07T00:39:07.013Z,22.28
2018-07-07T00:40:07.050Z,22.31
2018-07-07T00:41:07.323Z,22.29
2018-07-07T00:42:07.271Z,22.31
2018-07-07T00:43:07.065Z,22.29
2018-07-07T00:44:06.899Z,22.31
2018-07-07T00:45:07.112Z,22.31
2018-07-07T00:46:07.109Z,22.28
2018-07-07T00:47:07.096Z,22.32
2018-07-07T00:48:07.341Z,22.29
2018-07-07T00:49:07.154Z,22.29
2018-07-07T00:50:07.466Z,22.29
2018-07-07T00:51:07.069Z,22.28
2018-07-07T00:52:07.255Z,22.28
2018-07-07T00:53:07.165Z,22.29
2018-07-07T00:54:07.253Z,22.28
2018-07-07T00:55:07.044Z,22.29
2018-07-07T00:56:06.978Z,22.29
2018-07-07T00:57:07.287Z,22.32
2018-07-07T00:58:07.200Z,22.29
2018-07-07T00:59:07.077Z,22.29
2018-07-07T01:00:07.077Z,22.32
2018-07-07T01:01:07.271Z,22.31
2018-07-07T01:02:07.272Z,22.28
2018-07-07T01:03:07.404Z,22.31
2018-07-07T01:04:17.265Z,22.28
2018-07-07T01:05:06.962Z,22.29
2018-07-07T01:06:07.257Z,22.27
2018-07-07T01:07:07.224Z,22.27
2018-07-07T01:08:07.037Z,22.28
2018-07-07T01:09:07.391Z,22.28
2018-07-07T01:10:07.024Z,22.28
2018-07-07T01:11:07.111Z,22.28
2018-07-07T01:12:07.343Z,22.28
2018-07-07T01:13:17.084Z,22.28
2018-07-07T01:14:07.334Z,22.29
2018-07-07T01:15:07.304Z,22.28
2018-07-07T01:16:07.607Z,22.28
2018-07-07T01:17:07.138Z,22.31
2018-07-07T01:18:07.088Z,22.28
2018-07-07T01:19:07.292Z,22.28
2018-07-07T01:20:07.304Z,22.28
2018-07-07T01:21:07.253Z,22.27
2018-07-07T01:22:07.014Z,22.28
2018-07-07T01:23:07.087Z,22.28
2018-07-07T01:24:07.362Z,22.28
2018-07-07T01:25:07.309Z,22.27
2018-07-07T01:26:07.098Z,22.27
2018-07-07T01:27:07.168Z,22.27
2018-07-07T01:28:07.005Z,22.26
2018-07-07T01:29:07.228Z,22.28
2018-07-07T01:30:07.239Z,22.28
2018-07-07T01:31:07.187Z,22.27
2018-07-07T01:32:07.236Z,22.28
2018-07-07T01:33:07.112Z,22.28
2018-07-07T01:34:07.296Z,22.27
2018-07-07T01:35:06.972Z,22.27
2018-07-07T01:36:07.220Z,22.28
2018-07-07T01:37:07.128Z,22.27
2018-07-07T01:38:07.123Z,22.24
2018-07-07T01:39:07.175Z,22.27
2018-07-07T01:40:07.000Z,22.26
2018-07-07T01:41:07.272Z,22.27
2018-07-07T01:42:07.077Z,22.28
2018-07-07T01:43:07.113Z,22.28
2018-07-07T01:44:07.040Z,22.27
2018-07-07T01:45:07.264Z,22.28
2018-07-07T01:46:07.113Z,22.26
2018-07-07T01:47:07.086Z,22.27
2018-07-07T01:48:07.100Z,22.24
2018-07-07T01:49:07.074Z,22.27
2018-07-07T01:50:07.067Z,22.25
2018-07-07T01:51:07.073Z,22.27
2018-07-07T01:52:07.047Z,22.25
2018-07-07T01:53:07.176Z,22.25
2018-07-07T01:54:07.018Z,22.25
2018-07-07T01:55:07.150Z,22.28
2018-07-07T01:56:06.974Z,22.26
2018-07-07T01:57:07.280Z,22.24
2018-07-07T01:58:06.975Z,22.25
2018-07-07T01:59:07.238Z,22.26
2018-07-07T02:00:07.104Z,22.26
2018-07-07T02:01:07.097Z,22.26
2018-07-07T02:02:07.108Z,22.26
2018-07-07T02:03:07.104Z,22.27
2018-07-07T02:04:07.179Z,22.27
2018-07-07T02:05:07.228Z,22.24
2018-07-07T02:06:07.281Z,22.26
2018-07-07T02:07:17.066Z,22.26
2018-07-07T02:08:07.129Z,22.24
2018-07-07T02:09:07.236Z,22.28
2018-07-07T02:10:07.050Z,22.25
2018-07-07T02:11:07.296Z,22.25
2018-07-07T02:12:07.190Z,22.24
2018-07-07T02:13:07.014Z,22.24
2018-07-07T02:14:07.191Z,22.24
2018-07-07T02:15:07.219Z,22.25
2018-07-07T02:16:07.032Z,22.24
2018-07-07T02:17:06.999Z,22.25
2018-07-07T02:18:07.197Z,22.24
2018-07-07T02:19:07.162Z,22.24
2018-07-07T02:20:07.130Z,22.24
2018-07-07T02:21:07.001Z,22.24
2018-07-07T02:22:07.226Z,22.25
2018-07-07T02:23:07.250Z,22.23
2018-07-07T02:24:07.161Z,22.23
2018-07-07T02:25:39.211Z,22.25
2018-07-07T02:26:07.172Z,22.24
2018-07-07T02:27:07.129Z,22.24
2018-07-07T02:28:07.433Z,22.24
2018-07-07T02:29:07.215Z,22.26
2018-07-07T02:30:07.202Z,22.25
2018-07-07T02:31:07.025Z,22.24
2018-07-07T02:32:07.041Z,22.24
2018-07-07T02:33:07.219Z,22.23
2018-07-07T02:34:07.072Z,22.24
2018-07-07T02:35:07.219Z,22.24
2018-07-07T02:36:07.233Z,22.24
2018-07-07T02:37:07.295Z,22.24
2018-07-07T02:38:07.021Z,22.24
2018-07-07T02:39:06.988Z,22.24
2018-07-07T02:40:07.108Z,22.24
2018-07-07T02:41:07.020Z,22.24
2018-07-07T02:42:07.046Z,22.24
2018-07-07T02:43:07.088Z,22.24
2018-07-07T02:44:07.026Z,22.25
2018-07-07T02:45:07.175Z,22.23
2018-07-07T02:46:07.225Z,22.24
2018-07-07T02:47:07.159Z,22.23
2018-07-07T02:48:07.286Z,22.24
2018-07-07T02:49:07.023Z,22.23
2018-07-07T02:50:07.102Z,22.24
2018-07-07T02:51:07.154Z,22.23
2018-07-07T02:52:07.172Z,22.24
2018-07-07T02:53:07.039Z,22.23
2018-07-07T02:54:07.187Z,22.24
2018-07-07T02:55:07.189Z,22.23
2018-07-07T02:56:07.146Z,22.23
2018-07-07T02:57:07.042Z,22.24
2018-07-07T02:58:07.036Z,22.24
2018-07-07T02:59:07.013Z,22.24
2018-07-07T03:00:07.046Z,22.22
2018-07-07T03:01:06.996Z,22.23
2018-07-07T03:02:07.136Z,22.23
2018-07-07T03:03:07.408Z,22.21
2018-07-07T03:04:07.090Z,22.24
2018-07-07T03:05:07.201Z,22.22
2018-07-07T03:06:07.234Z,22.23
2018-07-07T03:07:07.267Z,22.23
2018-07-07T03:08:07.166Z,22.22
2018-07-07T03:09:07.059Z,22.23
2018-07-07T03:10:07.117Z,22.22
2018-07-07T03:11:07.178Z,22.22
2018-07-07T03:12:07.153Z,22.22
2018-07-07T03:13:07.076Z,22.23
2018-07-07T03:14:07.039Z,22.23
2018-07-07T03:15:07.422Z,22.23
2018-07-07T03:16:07.093Z,22.21
2018-07-07T03:17:07.119Z,22.22
2018-07-07T03:18:07.200Z,22.23
2018-07-07T03:19:07.312Z,22.23
2018-07-07T03:20:07.186Z,22.23
2018-07-07T03:21:07.264Z,22.22
2018-07-07T03:22:07.192Z,22.22
2018-07-07T03:23:07.079Z,22.22
2018-07-07T03:24:07.201Z,22.2
2018-07-07T03:25:06.956Z,22.23
2018-07-07T03:26:06.974Z,22.21
2018-07-07T03:27:06.972Z,22.23
2018-07-07T03:28:07.142Z,22.23
2018-07-07T03:29:07.182Z,22.22
2018-07-07T03:30:07.244Z,22.22
2018-07-07T03:31:07.241Z,22.21
2018-07-07T03:32:07.164Z,22.21
2018-07-07T03:33:07.212Z,22.22
2018-07-07T03:34:07.166Z,22.21
2018-07-07T03:35:07.055Z,22.2
2018-07-07T03:36:07.068Z,22.21
2018-07-07T03:37:07.042Z,22.2
2018-07-07T03:38:07.072Z,22.21
2018-07-07T03:39:07.181Z,22.21
2018-07-07T03:40:07.157Z,22.23
2018-07-07T03:41:07.009Z,22.22
2018-07-07T03:42:07.305Z,22.21
2018-07-07T03:43:07.190Z,22.2
2018-07-07T03:44:07.005Z,22.23
2018-07-07T03:45:07.218Z,22.21
2018-07-07T03:46:07.195Z,22.21
2018-07-07T03:47:07.116Z,22.21
2018-07-07T03:48:07.307Z,22.22
2018-07-07T03:49:07.210Z,22.22
2018-07-07T03:50:07.002Z,22.21
2018-07-07T03:51:07.234Z,22.22
2018-07-07T03:52:07.207Z,22.21
2018-07-07T03:53:07.088Z,22.22
2018-07-07T03:54:07.156Z,22.21
2018-07-07T03:55:06.997Z,22.19
2018-07-07T03:56:07.095Z,22.21
2018-07-07T03:57:06.988Z,22.21
2018-07-07T03:58:07.106Z,22.21
2018-07-07T03:59:07.033Z,22.21
2018-07-07T04:00:07.153Z,22.2
2018-07-07T04:01:07.184Z,22.19
2018-07-07T04:02:07.108Z,22.2
2018-07-07T04:03:06.941Z,22.21
2018-07-07T04:04:06.986Z,22.18
2018-07-07T04:05:07.144Z,22.21
2018-07-07T04:06:07.195Z,22.21
2018-07-07T04:07:07.155Z,22.2
2018-07-07T04:08:07.163Z,22.21
2018-07-07T04:09:07.020Z,22.2
2018-07-07T04:10:07.192Z,22.21
2018-07-07T04:11:07.050Z,22.23
2018-07-07T04:12:07.162Z,22.19
2018-07-07T04:13:06.974Z,22.21
2018-07-07T04:14:07.143Z,22.21
2018-07-07T04:15:06.988Z,22.19
2018-07-07T04:16:06.933Z,22.19
2018-07-07T04:17:07.192Z,22.21
2018-07-07T04:18:07.114Z,22.2
2018-07-07T04:19:07.175Z,22.19
2018-07-07T04:20:07.331Z,22.19
2018-07-07T04:21:07.238Z,22.19
2018-07-07T04:22:07.074Z,22.2
2018-07-07T04:23:07.015Z,22.21
2018-07-07T04:24:07.035Z,22.22
2018-07-07T04:25:07.178Z,22.19
2018-07-07T04:26:07.093Z,22.2
2018-07-07T04:27:07.020Z,22.19
2018-07-07T04:28:07.041Z,22.2
2018-07-07T04:29:07.065Z,22.18
2018-07-07T04:30:07.250Z,22.19
2018-07-07T04:31:07.071Z,22.19
2018-07-07T04:32:07.148Z,22.2
2018-07-07T04:33:07.192Z,22.19
2018-07-07T04:34:07.249Z,22.19
2018-07-07T04:35:07.083Z,22.19
2018-07-07T04:36:06.947Z,22.2
2018-07-07T04:37:07.246Z,22.19
2018-07-07T04:38:07.146Z,22.2
2018-07-07T04:39:07.148Z,22.2
2018-07-07T04:40:07.162Z,22.2
2018-07-07T04:41:07.098Z,22.18
2018-07-07T04:42:07.169Z,22.19
2018-07-07T04:43:07.148Z,22.19
2018-07-07T04:44:07.472Z,22.18
2018-07-07T04:45:06.977Z,22.2
2018-07-07T04:46:07.211Z,22.2
2018-07-07T04:47:06.949Z,22.19
2018-07-07T04:48:07.201Z,22.2
2018-07-07T04:49:07.135Z,22.19
2018-07-07T04:50:07.091Z,22.19
2018-07-07T04:51:07.192Z,22.19
2018-07-07T04:52:06.950Z,22.19
2018-07-07T04:53:07.174Z,22.19
2018-07-07T04:54:07.086Z,22.17
2018-07-07T04:55:07.004Z,22.2
2018-07-07T04:56:07.187Z,22.16
2018-07-07T04:57:07.075Z,22.17
2018-07-07T04:58:07.168Z,22.19
2018-07-07T04:59:07.141Z,22.17
2018-07-07T05:00:07.159Z,22.19
2018-07-07T05:01:07.014Z,22.17
2018-07-07T05:02:07.314Z,22.19
2018-07-07T05:03:07.129Z,22.19
2018-07-07T05:04:07.209Z,22.18
2018-07-07T05:05:07.345Z,22.17
2018-07-07T05:06:07.035Z,22.17
2018-07-07T05:07:07.170Z,22.19
2018-07-07T05:08:07.213Z,22.19
2018-07-07T05:09:06.890Z,22.2
2018-07-07T05:10:06.977Z,22.19
2018-07-07T05:11:07.070Z,22.19
2018-07-07T05:12:07.213Z,22.19
2018-07-07T05:13:07.125Z,22.19
2018-07-07T05:14:07.098Z,22.2
2018-07-07T05:15:07.060Z,22.19
2018-07-07T05:16:07.196Z,22.19
2018-07-07T05:17:07.127Z,22.19
2018-07-07T05:18:07.059Z,22.18
2018-07-07T05:19:06.944Z,22.18
2018-07-07T05:20:07.084Z,22.19
2018-07-07T05:21:07.224Z,22.19
2018-07-07T05:22:07.042Z,22.2
2018-07-07T05:23:07.034Z,22.17
2018-07-07T05:24:07.052Z,22.16
2018-07-07T05:25:07.251Z,22.19
2018-07-07T05:26:06.963Z,22.19
2018-07-07T05:27:07.214Z,22.18
2018-07-07T05:28:07.035Z,22.19
2018-07-07T05:29:07.112Z,22.19
2018-07-07T05:30:07.021Z,22.19
2018-07-07T05:31:07.013Z,22.19
2018-07-07T05:32:07.768Z,22.19
2018-07-07T05:33:07.176Z,22.17
2018-07-07T05:34:07.077Z,22.18
2018-07-07T05:35:07.114Z,22.17
2018-07-07T05:36:07.159Z,22.19
2018-07-07T05:37:07.438Z,22.18
2018-07-07T05:38:06.958Z,22.18
2018-07-07T05:39:07.142Z,22.18
2018-07-07T05:40:07.089Z,22.19
2018-07-07T05:41:06.967Z,22.18
2018-07-07T05:42:06.949Z,22.21
2018-07-07T05:43:07.324Z,22.19
2018-07-07T05:44:06.901Z,22.19
2018-07-07T05:45:07.177Z,22.18
2018-07-07T05:46:07.269Z,22.19
2018-07-07T05:47:07.033Z,22.2
2018-07-07T05:48:07.288Z,22.19
2018-07-07T05:49:06.958Z,22.19
2018-07-07T05:50:07.727Z,22.19
2018-07-07T05:51:07.043Z,22.19
2018-07-07T05:52:07.157Z,22.17
2018-07-07T05:53:07.036Z,22.19
2018-07-07T05:54:07.305Z,22.18
2018-07-07T05:55:07.090Z,22.18
2018-07-07T05:56:07.069Z,22.2
2018-07-07T05:57:07.179Z,22.18
2018-07-07T05:58:07.067Z,22.17
2018-07-07T05:59:07.076Z,22.18
2018-07-07T06:00:07.101Z,22.19
2018-07-07T06:01:07.059Z,22.19
2018-07-07T06:02:07.140Z,22.19
2018-07-07T06:03:07.219Z,22.17
2018-07-07T06:04:07.170Z,22.16
2018-07-07T06:05:07.037Z,22.18
2018-07-07T06:06:07.031Z,22.18
2018-07-07T06:07:07.223Z,22.2
2018-07-07T06:08:07.115Z,22.18
2018-07-07T06:09:07.139Z,22.19
2018-07-07T06:10:07.089Z,22.17
2018-07-07T06:11:06.982Z,22.19
2018-07-07T06:12:07.053Z,22.18
2018-07-07T06:13:07.198Z,22.18
2018-07-07T06:14:07.201Z,22.18
2018-07-07T06:15:07.115Z,22.19
2018-07-07T06:16:06.922Z,22.16
2018-07-07T06:17:07.158Z,22.18
2018-07-07T06:18:07.323Z,22.19
2018-07-07T06:19:07.109Z,22.18
2018-07-07T06:20:07.220Z,22.19
2018-07-07T06:21:07.134Z,22.16
2018-07-07T06:22:07.135Z,22.19
2018-07-07T06:23:06.931Z,22.19
2018-07-07T06:24:07.040Z,22.18
2018-07-07T06:25:07.060Z,22.18
2018-07-07T06:26:07.218Z,22.14
2018-07-07T06:27:07.045Z,22.19
2018-07-07T06:28:07.085Z,22.18
2018-07-07T06:29:06.978Z,22.17
2018-07-07T06:30:07.105Z,22.18
2018-07-07T06:31:07.024Z,22.18
2018-07-07T06:32:17.036Z,22.19
2018-07-07T06:33:07.135Z,22.18
2018-07-07T06:34:06.993Z,22.17
2018-07-07T06:35:07.122Z,22.17
2018-07-07T06:36:07.080Z,22.16
2018-07-07T06:37:06.920Z,22.17
2018-07-07T06:38:07.098Z,22.19
2018-07-07T06:39:07.078Z,22.17
2018-07-07T06:40:07.094Z,22.17
2018-07-07T06:41:07.012Z,22.18
2018-07-07T06:42:07.035Z,22.17
2018-07-07T06:43:07.179Z,22.18
2018-07-07T06:44:07.017Z,22.18
2018-07-07T06:45:07.109Z,22.18
2018-07-07T06:46:06.981Z,22.18
2018-07-07T06:47:07.045Z,22.16
2018-07-07T06:48:06.935Z,22.17
2018-07-07T06:49:06.950Z,22.18
2018-07-07T06:50:07.010Z,22.19
2018-07-07T06:51:07.058Z,22.2
2018-07-07T06:52:07.022Z,22.18
2018-07-07T06:53:07.142Z,22.17
2018-07-07T06:54:07.266Z,22.18
2018-07-07T06:55:07.206Z,22.19
2018-07-07T06:56:06.996Z,22.18
2018-07-07T06:57:06.986Z,22.18
2018-07-07T06:58:07.156Z,22.17
2018-07-07T06:59:06.937Z,22.18
2018-07-07T07:00:07.096Z,22.19
2018-07-07T07:01:07.096Z,22.19
2018-07-07T07:02:07.055Z,22.18
2018-07-07T07:03:07.124Z,22.17
2018-07-07T07:04:07.004Z,22.16
2018-07-07T07:05:07.170Z,22.19
2018-07-07T07:06:07.160Z,22.18
2018-07-07T07:07:07.207Z,22.21
2018-07-07T07:08:07.090Z,22.18
2018-07-07T07:09:07.252Z,22.19
2018-07-07T07:10:07.139Z,22.2
2018-07-07T07:11:07.240Z,22.17
2018-07-07T07:12:07.013Z,22.17
2018-07-07T07:13:06.941Z,22.16
2018-07-07T07:14:07.114Z,22.2
2018-07-07T07:15:07.101Z,22.18
2018-07-07T07:16:07.191Z,22.18
2018-07-07T07:17:06.976Z,22.18
2018-07-07T07:18:07.110Z,22.19
2018-07-07T07:19:07.100Z,22.17
2018-07-07T07:20:07.148Z,22.19
2018-07-07T07:21:07.068Z,22.23
2018-07-07T07:22:06.943Z,22.24
2018-07-07T07:23:07.106Z,22.23
2018-07-07T07:24:06.976Z,22.25
2018-07-07T07:25:06.965Z,22.27
2018-07-07T07:26:08.086Z,22.27
2018-07-07T07:27:07.032Z,22.27
2018-07-07T07:28:06.968Z,22.26
2018-07-07T07:29:06.912Z,22.31
2018-07-07T07:30:07.053Z,22.31
2018-07-07T07:31:07.102Z,22.33
2018-07-07T07:32:07.243Z,22.36
2018-07-07T07:33:07.511Z,22.35
2018-07-07T07:34:07.088Z,22.37
2018-07-07T07:35:07.064Z,22.37
2018-07-07T07:36:07.000Z,22.39
2018-07-07T07:37:06.968Z,22.4
2018-07-07T07:38:06.947Z,22.41
2018-07-07T07:39:07.088Z,22.42
2018-07-07T07:40:07.130Z,22.42
2018-07-07T07:41:06.983Z,22.42
2018-07-07T07:42:07.167Z,22.44
2018-07-07T07:43:07.140Z,22.44
2018-07-07T07:44:07.197Z,22.47
2018-07-07T07:45:06.919Z,22.48
2018-07-07T07:46:07.056Z,22.48
2018-07-07T07:47:52.070Z,22.51
2018-07-07T07:48:52.208Z,22.5
2018-07-07T07:49:52.236Z,22.51
2018-07-07T07:50:52.102Z,22.51
2018-07-07T07:51:52.218Z,22.53
2018-07-07T07:52:52.548Z,22.53
2018-07-07T07:54:02.199Z,22.51
2018-07-07T07:54:52.247Z,22.51
2018-07-07T07:55:52.370Z,22.47
2018-07-07T07:56:52.356Z,22.47
2018-07-07T07:57:52.451Z,22.41
2018-07-07T07:58:52.680Z,22.44
2018-07-07T07:59:52.102Z,22.42
2018-07-07T08:00:52.276Z,22.42
2018-07-07T08:01:52.455Z,22.41
2018-07-07T08:02:52.092Z,22.39
2018-07-07T08:03:52.295Z,22.38
2018-07-07T08:04:52.399Z,22.37
2018-07-07T08:05:52.531Z,22.37
2018-07-07T08:06:52.421Z,22.36
2018-07-07T08:07:52.278Z,22.37
2018-07-07T08:08:52.427Z,22.36
2018-07-07T08:09:52.157Z,22.35
2018-07-07T08:10:52.314Z,22.34
2018-07-07T08:11:52.258Z,22.36
2018-07-07T08:12:52.473Z,22.35
2018-07-07T08:13:52.114Z,22.35
2018-07-07T08:14:52.276Z,22.35
2018-07-07T08:15:52.283Z,22.34
2018-07-07T08:17:23.922Z,22.34
2018-07-07T08:17:52.182Z,22.35
2018-07-07T08:18:52.216Z,22.33
2018-07-07T08:19:52.378Z,22.31
2018-07-07T08:20:52.191Z,22.32
2018-07-07T08:21:52.156Z,22.32
2018-07-07T08:22:52.518Z,22.32
2018-07-07T08:23:52.167Z,22.31
2018-07-07T08:24:52.215Z,22.31
2018-07-07T08:25:52.100Z,22.31
2018-07-07T08:26:52.251Z,22.29
2018-07-07T08:27:52.319Z,22.29
2018-07-07T08:28:52.164Z,22.31
2018-07-07T08:29:52.228Z,22.31
2018-07-07T08:30:52.281Z,22.31
2018-07-07T08:31:52.288Z,22.29
2018-07-07T08:32:51.997Z,22.28
2018-07-07T08:33:52.271Z,22.27
2018-07-07T08:34:52.286Z,22.28
2018-07-07T08:35:52.242Z,22.31
2018-07-07T08:36:52.463Z,22.32
2018-07-07T08:37:52.073Z,22.29
2018-07-07T08:38:52.257Z,22.28
2018-07-07T08:39:52.289Z,22.28
2018-07-07T08:40:52.328Z,22.27
2018-07-07T08:41:52.418Z,22.28
2018-07-07T08:42:52.167Z,22.28
2018-07-07T08:43:52.124Z,22.26
2018-07-07T08:44:52.148Z,22.27
2018-07-07T08:45:52.481Z,22.26
2018-07-07T08:46:52.129Z,22.25
2018-07-07T08:47:52.248Z,22.26
2018-07-07T08:48:52.112Z,22.26
2018-07-07T08:49:52.301Z,22.26
2018-07-07T08:50:52.103Z,22.28
2018-07-07T08:51:52.215Z,22.28
2018-07-07T08:52:52.189Z,22.25
2018-07-07T08:53:52.848Z,22.26
2018-07-07T08:54:52.950Z,22.28
2018-07-07T08:55:53.680Z,22.27
2018-07-07T08:56:52.765Z,22.26
2018-07-07T08:57:52.870Z,22.26
2018-07-07T08:58:52.915Z,22.25
2018-07-07T08:59:52.727Z,22.27
2018-07-07T09:00:53.990Z,22.26
2018-07-07T09:01:53.149Z,22.26
2018-07-07T09:02:52.851Z,22.26
2018-07-07T09:03:52.878Z,22.25
2018-07-07T09:04:53.751Z,22.24
2018-07-07T09:05:52.906Z,22.26
2018-07-07T09:06:52.789Z,22.26
2018-07-07T09:07:52.883Z,22.25
2018-07-07T09:08:52.644Z,22.24
2018-07-07T09:09:52.802Z,22.26
2018-07-07T09:10:52.611Z,22.24
2018-07-07T09:11:53.809Z,22.25
2018-07-07T09:12:52.848Z,22.27
2018-07-07T09:13:53.067Z,22.27
2018-07-07T09:14:52.868Z,22.24
2018-07-07T09:15:53.031Z,22.25
2018-07-07T09:16:53.076Z,22.24
2018-07-07T09:17:52.729Z,22.24
2018-07-07T09:18:54.622Z,22.24
2018-07-07T09:19:52.876Z,22.24
2018-07-07T09:20:52.980Z,22.25
2018-07-07T09:21:52.849Z,22.27
2018-07-07T09:22:53.005Z,22.34
2018-07-07T09:23:53.022Z,22.34
2018-07-07T09:24:52.880Z,22.35
2018-07-07T09:25:52.894Z,22.34
2018-07-07T09:26:52.716Z,22.37
2018-07-07T09:27:52.765Z,22.39
2018-07-07T09:28:52.979Z,22.38
2018-07-07T09:29:52.884Z,22.37
2018-07-07T09:30:53.137Z,22.41
2018-07-07T09:31:52.851Z,22.46
2018-07-07T09:32:53.101Z,22.43
2018-07-07T09:33:53.668Z,22.44
2018-07-07T09:34:53.732Z,22.43
2018-07-07T09:35:52.657Z,22.44
2018-07-07T09:36:52.799Z,22.47
2018-07-07T09:37:52.833Z,22.48
2018-07-07T09:38:53.480Z,22.47
2018-07-07T09:39:52.758Z,22.48
2018-07-07T09:40:52.801Z,22.49
2018-07-07T09:41:52.807Z,22.5
2018-07-07T09:42:52.961Z,22.5
2018-07-07T09:43:52.794Z,22.51
2018-07-07T09:44:52.742Z,22.51
2018-07-07T09:45:53.067Z,22.51
2018-07-07T09:46:52.806Z,22.51
2018-07-07T09:47:52.848Z,22.52
2018-07-07T09:48:53.044Z,22.55
2018-07-07T09:49:53.012Z,22.55
2018-07-07T09:50:53.128Z,22.56
2018-07-07T09:51:52.813Z,22.56
2018-07-07T09:52:52.436Z,22.55
2018-07-07T09:53:52.124Z,22.56
2018-07-07T09:54:52.209Z,22.56
2018-07-07T09:55:52.116Z,22.58
2018-07-07T09:56:52.184Z,22.57
2018-07-07T09:57:53.237Z,22.6
2018-07-07T09:58:52.172Z,22.58
2018-07-07T09:59:52.805Z,22.58
2018-07-07T10:00:52.070Z,22.6
2018-07-07T10:01:52.457Z,22.58
2018-07-07T10:02:52.198Z,22.61
2018-07-07T10:03:52.124Z,22.62
2018-07-07T10:04:52.130Z,22.6
2018-07-07T10:05:52.134Z,22.63
2018-07-07T10:06:52.087Z,22.65
2018-07-07T10:07:52.623Z,22.65
2018-07-07T10:08:52.851Z,22.66
2018-07-07T10:09:53.052Z,22.67
2018-07-07T10:10:52.079Z,22.65
2018-07-07T10:11:52.201Z,22.65
2018-07-07T10:12:52.166Z,22.66
2018-07-07T10:13:53.108Z,22.7
2018-07-07T10:14:52.894Z,22.71
2018-07-07T10:15:53.131Z,22.7
2018-07-07T10:16:52.041Z,22.68
2018-07-07T10:17:52.143Z,22.69
2018-07-07T10:18:52.150Z,22.68
2018-07-07T10:19:53.151Z,22.71
2018-07-07T10:20:52.109Z,22.71
2018-07-07T10:21:53.199Z,22.71
2018-07-07T10:22:52.102Z,22.7
2018-07-07T10:23:52.828Z,22.73
2018-07-07T10:24:52.724Z,22.7
2018-07-07T10:25:52.049Z,22.69
2018-07-07T10:26:53.302Z,22.69
2018-07-07T10:27:52.192Z,22.67
2018-07-07T10:28:52.222Z,22.69
2018-07-07T10:29:52.234Z,22.7
2018-07-07T10:30:52.587Z,22.7
2018-07-07T10:31:52.756Z,22.69
2018-07-07T10:32:53.116Z,22.71
2018-07-07T10:33:53.130Z,22.71
2018-07-07T10:34:51.967Z,22.73
2018-07-07T10:35:52.560Z,22.72
2018-07-07T10:36:52.067Z,22.71
2018-07-07T10:37:52.205Z,22.72
2018-07-07T10:38:52.212Z,22.72
2018-07-07T10:39:53.174Z,22.72
2018-07-07T10:40:53.195Z,22.72
2018-07-07T10:41:52.199Z,22.72
2018-07-07T10:42:53.176Z,22.75
2018-07-07T10:43:52.045Z,22.76
2018-07-07T10:44:53.224Z,22.73
2018-07-07T10:45:54.310Z,22.78
2018-07-07T10:46:52.815Z,22.77
2018-07-07T10:47:52.473Z,22.76
2018-07-07T10:48:52.357Z,22.77
2018-07-07T10:49:52.158Z,22.77
2018-07-07T10:50:53.268Z,22.79
2018-07-07T10:51:52.902Z,22.78
2018-07-07T10:52:52.080Z,22.79
2018-07-07T10:53:52.756Z,22.77
2018-07-07T10:54:52.210Z,22.79
2018-07-07T10:55:52.147Z,22.78
2018-07-07T10:56:52.202Z,22.79
2018-07-07T10:57:52.203Z,22.94
2018-07-07T10:58:52.491Z,22.98
2018-07-07T10:59:52.176Z,22.92
2018-07-07T11:00:52.165Z,22.81
2018-07-07T11:01:52.359Z,22.78
2018-07-07T11:02:52.079Z,22.75
2018-07-07T11:03:52.154Z,22.71
2018-07-07T11:04:51.968Z,22.69
2018-07-07T11:05:52.138Z,22.69
2018-07-07T11:06:52.247Z,22.68
2018-07-07T11:07:52.171Z,22.67
2018-07-07T11:08:52.060Z,22.68
2018-07-07T11:09:52.222Z,22.66
2018-07-07T11:10:52.243Z,22.65
2018-07-07T11:11:52.915Z,22.62
2018-07-07T11:12:52.220Z,22.63
2018-07-07T11:13:52.122Z,22.6
2018-07-07T11:14:52.211Z,22.62
2018-07-07T11:15:52.069Z,22.6
2018-07-07T11:16:52.140Z,22.58
2018-07-07T11:17:52.111Z,22.58
2018-07-07T11:18:52.282Z,22.58
2018-07-07T11:19:52.317Z,22.6
2018-07-07T11:20:52.380Z,22.58
2018-07-07T11:21:52.242Z,22.56
2018-07-07T11:22:52.122Z,22.56
2018-07-07T11:23:52.187Z,22.57
2018-07-07T11:24:52.078Z,22.55
2018-07-07T11:25:52.323Z,22.53
2018-07-07T11:26:52.331Z,22.54
2018-07-07T11:27:52.024Z,22.53
2018-07-07T11:28:52.138Z,22.53
2018-07-07T11:29:52.759Z,22.54
2018-07-07T11:30:52.245Z,22.54
2018-07-07T11:31:52.230Z,22.52
2018-07-07T11:32:52.170Z,22.53
2018-07-07T11:33:52.245Z,22.55
2018-07-07T11:34:52.183Z,22.51
2018-07-07T11:35:52.108Z,22.53
2018-07-07T11:36:52.554Z,22.51
2018-07-07T11:37:52.221Z,22.5
2018-07-07T11:38:52.202Z,22.51
2018-07-07T11:39:52.170Z,22.51
2018-07-07T11:40:52.255Z,22.49
2018-07-07T11:41:52.150Z,22.51
2018-07-07T11:42:51.930Z,22.5
2018-07-07T11:43:52.001Z,22.49
2018-07-07T11:44:52.251Z,22.5
2018-07-07T11:45:52.161Z,22.5
2018-07-07T11:46:52.177Z,22.5
2018-07-07T11:47:52.266Z,22.49
2018-07-07T11:48:52.111Z,22.48
2018-07-07T11:49:52.295Z,22.49
2018-07-07T11:50:52.068Z,22.48
2018-07-07T11:51:52.191Z,22.5
2018-07-07T11:52:52.445Z,22.49
2018-07-07T11:53:52.537Z,22.48
2018-07-07T11:54:52.460Z,22.48
2018-07-07T11:55:52.475Z,22.47
2018-07-07T11:56:52.311Z,22.46
2018-07-07T11:57:52.719Z,22.47
2018-07-07T11:58:52.577Z,22.46
2018-07-07T11:59:52.569Z,22.47
2018-07-07T12:00:52.742Z,22.46
2018-07-07T12:01:52.638Z,22.44
2018-07-07T12:02:52.496Z,22.46
2018-07-07T12:03:52.768Z,22.47
2018-07-07T12:04:52.916Z,22.47
2018-07-07T12:05:54.975Z,22.48
2018-07-07T12:06:52.367Z,22.46
2018-07-07T12:08:14.568Z,22.44
2018-07-07T12:08:55.068Z,22.47
2018-07-07T12:09:52.726Z,22.47
2018-07-07T12:10:52.783Z,22.42
2018-07-07T12:11:52.711Z,22.43
2018-07-07T12:12:52.411Z,22.44
2018-07-07T12:13:52.429Z,22.42
2018-07-07T12:14:52.566Z,22.44
2018-07-07T12:15:52.453Z,22.44
2018-07-07T12:16:52.533Z,22.44
2018-07-07T12:17:52.713Z,22.42
2018-07-07T12:18:52.034Z,22.46
2018-07-07T12:19:52.774Z,22.43
2018-07-07T12:20:52.732Z,22.43
2018-07-07T12:21:52.388Z,22.42
2018-07-07T12:22:52.375Z,22.42
2018-07-07T12:23:52.571Z,22.42
2018-07-07T12:24:55.000Z,22.43
2018-07-07T12:25:52.493Z,22.49
2018-07-07T12:26:52.754Z,22.49
2018-07-07T12:27:52.529Z,22.51
2018-07-07T12:28:52.745Z,22.52
2018-07-07T12:29:52.433Z,22.52
2018-07-07T12:30:52.502Z,22.54
2018-07-07T12:31:52.789Z,22.57
2018-07-07T12:32:52.515Z,22.6
2018-07-07T12:33:52.615Z,22.58
2018-07-07T12:34:52.382Z,22.61
2018-07-07T12:35:52.771Z,22.62
2018-07-07T12:36:52.007Z,22.63
2018-07-07T12:37:52.475Z,22.64
2018-07-07T12:38:52.011Z,22.63
2018-07-07T12:39:52.531Z,22.64
2018-07-07T12:40:53.027Z,22.64
2018-07-07T12:41:52.318Z,22.67
2018-07-07T12:42:52.498Z,22.69
2018-07-07T12:43:52.608Z,22.7
2018-07-07T12:44:52.924Z,22.69
2018-07-07T12:46:33.724Z,22.69
2018-07-07T12:46:52.539Z,22.69
2018-07-07T12:47:52.445Z,22.69
2018-07-07T12:48:52.822Z,22.69
2018-07-07T12:49:52.803Z,22.7
2018-07-07T12:50:52.821Z,22.71
2018-07-07T12:51:52.802Z,22.73
2018-07-07T12:52:52.106Z,22.73
2018-07-07T12:53:52.272Z,22.75
2018-07-07T12:54:53.042Z,22.73